Time;durP1;ratioP1;P1;durP2;ratioP2;P2;SDS_P1;SDS_P2;PMS_P1;PMS_P2;Temp;Humidity;BMP_temperature;BMP_pressure;BME280_temperature;BME280_humidity;BME280_pressure;Samples;Min_cycle;Max_cycle;Signal;HPM_P1;HPM_P2
2022/08/29 00:00:55;;;;;;;;;;;;;;;20.76;76.62;100172.31;5034237;28;19917;-72
2022/08/29 00:03:20;;;;;;;;;;;;;;;20.67;78.21;100167.25;5016952;28;20340;-71
2022/08/29 00:05:46;;;;;;;;;;;;;;;20.59;77.50;100164.97;5016934;28;19936;-72
2022/08/29 00:08:11;;;;;;;;;;;;;;;20.60;76.93;100166.56;5034057;28;19913;-71
2022/08/29 00:10:37;;;;;;;;;;;;;;;20.55;78.00;100179.16;5016277;28;19924;-72
2022/08/29 00:13:04;;;;;;;;;;;;;;;20.63;78.09;100171.34;5016867;28;19913;-73
2022/08/29 00:15:29;;;;;;;;;;;;;;;20.65;77.50;100174.53;5033987;28;19949;-72
2022/08/29 00:17:54;;;;;;;;;;;;;;;20.68;76.75;100170.88;5016996;28;19955;-72
2022/08/29 00:20:21;;;;;;;;;;;;;;;20.73;77.47;100164.72;5034358;28;20044;-73
2022/08/29 00:22:47;;;;;;;;;;;;;;;20.78;77.37;100164.22;5015906;28;20413;-72
2022/08/29 00:25:13;;;;;;;;;;;;;;;20.83;77.08;100166.53;5034415;28;19996;-72
2022/08/29 00:27:38;;;;;;;;;;;;;;;20.77;76.16;100170.28;5016911;28;19913;-72
2022/08/29 00:30:04;;;;;;;;;;;;;;;20.75;77.04;100170.72;5016352;28;20262;-73
2022/08/29 00:32:33;;;;;;;;;;;;;;;20.75;77.43;100167.91;5016237;28;19913;-72
2022/08/29 00:35:12;;;;;;;;;;;;;;;20.75;76.81;100170.72;5016831;28;19979;-72
2022/08/29 00:37:38;;;;;;;;;;;;;;;20.60;76.20;100173.00;5013699;28;20449;-72
2022/08/29 00:40:04;;;;;;;;;;;;;;;20.63;77.48;100177.81;5034016;28;19913;-72
2022/08/29 00:42:30;;;;;;;;;;;;;;;20.57;77.72;100184.41;5016404;28;19913;-73
2022/08/29 00:44:55;;;;;;;;;;;;;;;20.57;77.64;100184.41;5032814;28;20012;-72
2022/08/29 00:47:25;;;;;;;;;;;;;;;20.58;77.75;100180.34;5016722;28;19917;-72
2022/08/29 00:49:53;;;;;;;;;;;;;;;20.63;77.96;100177.81;5015964;28;19913;-73
2022/08/29 00:52:26;;;;;;;;;;;;;;;20.63;77.43;100177.00;5016268;28;20352;-72
2022/08/29 00:54:52;;;;;;;;;;;;;;;20.71;76.40;100172.81;5034056;28;19959;-72
2022/08/29 00:57:19;;;;;;;;;;;;;;;20.64;75.45;100178.59;5033985;28;20356;-72
2022/08/29 00:59:44;;;;;;;;;;;;;;;20.50;75.25;100179.66;5015699;28;19952;-72
2022/08/29 01:02:10;;;;;;;;;;;;;;;20.49;77.85;100182.91;5015820;28;19959;-72
2022/08/29 01:04:38;;;;;;;;;;;;;;;20.55;77.86;100184.00;5015925;28;19913;-72
2022/08/29 01:07:03;;;;;;;;;;;;;;;20.58;77.58;100172.66;5034224;28;19914;-72
2022/08/29 01:09:29;;;;;;;;;;;;;;;20.66;77.90;100170.47;5016128;28;19913;-72
2022/08/29 01:14:40;;;;;;;;;;;;;;;20.64;77.36;100164.47;5033533;28;19919;-71
2022/08/29 01:17:07;;;;;;;;;;;;;;;20.49;76.76;100178.06;5015666;28;19920;-72
2022/08/29 01:19:40;;;;;;;;;;;;;;;20.59;76.31;100170.63;5033715;28;19913;-72
2022/08/29 01:22:08;;;;;;;;;;;;;;;20.48;77.08;100170.81;5015689;28;20411;-73
2022/08/29 01:24:42;;;;;;;;;;;;;;;20.41;77.18;100177.38;5015706;28;19913;-71
2022/08/29 01:27:10;;;;;;;;;;;;;;;20.31;77.95;100180.38;5015685;28;19947;-72
2022/08/29 01:29:35;;;;;;;;;;;;;;;20.27;77.83;100180.44;5015629;28;19913;-72
2022/08/29 01:32:01;;;;;;;;;;;;;;;20.11;78.16;100175.44;5015926;28;19921;-72
2022/08/29 01:34:27;;;;;;;;;;;;;;;20.02;79.35;100177.19;5015596;28;19913;-72
2022/08/29 01:37:00;;;;;;;;;;;;;;;19.96;78.61;100174.06;5019508;28;19912;-72
2022/08/29 01:39:28;;;;;;;;;;;;;;;19.84;79.32;100183.94;5019739;28;20267;-72
2022/08/29 01:41:54;;;;;;;;;;;;;;;19.76;78.18;100182.47;5035533;28;19921;-72
2022/08/29 01:44:21;;;;;;;;;;;;;;;19.73;81.32;100183.28;5019619;28;19916;-72
2022/08/29 01:46:47;;;;;;;;;;;;;;;19.61;80.65;100178.22;5019289;28;19913;-72
2022/08/29 01:49:13;;;;;;;;;;;;;;;19.63;81.22;100179.41;5002852;28;19921;-73
2022/08/29 01:51:40;;;;;;;;;;;;;;;19.60;80.01;100176.59;5018895;28;19913;-73
2022/08/29 01:54:06;;;;;;;;;;;;;;;19.58;80.77;100177.00;5037004;28;19919;-73
2022/08/29 01:56:34;;;;;;;;;;;;;;;19.50;79.87;100180.38;5036604;28;19913;-73
2022/08/29 01:59:00;;;;;;;;;;;;;;;19.40;80.91;100178.50;5018759;28;19917;-72
2022/08/29 02:01:28;;;;;;;;;;;;;;;19.35;81.04;100180.56;5018180;28;19964;-73
2022/08/29 02:03:53;;;;;;;;;;;;;;;19.38;82.27;100185.34;5018636;28;19913;-73
2022/08/29 02:06:19;;;;;;;;;;;;;;;19.27;83.50;100172.59;5037092;28;19958;-73
2022/08/29 02:08:44;;;;;;;;;;;;;;;19.18;84.01;100178.78;5019194;28;20259;-73
2022/08/29 02:11:11;;;;;;;;;;;;;;;19.17;85.46;100179.97;5036360;28;20386;-73
2022/08/29 02:13:37;;;;;;;;;;;;;;;19.08;85.67;100176.88;5019124;28;20132;-73
2022/08/29 02:16:02;;;;;;;;;;;;;;;19.08;85.81;100176.88;5018616;28;19913;-73
2022/08/29 02:18:28;;;;;;;;;;;;;;;19.07;86.83;100175.28;5018434;28;19936;-72
2022/08/29 02:20:53;;;;;;;;;;;;;;;19.06;87.34;100184.94;5018513;28;19913;-73
2022/08/29 02:23:18;;;;;;;;;;;;;;;19.15;86.54;100176.78;5018348;28;19913;-73
2022/08/29 02:25:46;;;;;;;;;;;;;;;19.17;86.80;100168.69;5018217;28;19913;-72
2022/08/29 02:28:13;;;;;;;;;;;;;;;19.20;87.04;100179.13;5018749;28;19913;-73
2022/08/29 02:30:39;;;;;;;;;;;;;;;19.22;86.63;100171.03;5018783;28;19968;-71
2022/08/29 02:33:05;;;;;;;;;;;;;;;19.29;86.58;100178.63;5002060;28;20386;-71
2022/08/29 02:35:31;;;;;;;;;;;;;;;19.33;86.55;100171.72;5018756;28;19913;-72
2022/08/29 02:37:56;;;;;;;;;;;;;;;19.32;85.91;100170.09;5035868;28;20352;-72
2022/08/29 02:40:21;;;;;;;;;;;;;;;19.39;85.97;100172.06;5035808;28;19921;-72
2022/08/29 02:42:47;;;;;;;;;;;;;;;19.42;86.10;100176.03;5036185;28;20331;-72
2022/08/29 02:45:12;;;;;;;;;;;;;;;19.47;85.81;100172.75;5035755;28;19913;-71
2022/08/29 02:47:37;;;;;;;;;;;;;;;19.50;85.47;100175.53;5017224;28;19917;-73
2022/08/29 02:50:04;;;;;;;;;;;;;;;19.51;85.20;100165.03;5017811;28;19963;-73
2022/08/29 02:52:30;;;;;;;;;;;;;;;19.69;85.38;100171.25;5017729;28;19913;-72
2022/08/29 02:54:55;;;;;;;;;;;;;;;19.74;85.33;100172.78;5034264;28;19920;-73
2022/08/29 02:57:20;;;;;;;;;;;;;;;19.75;82.80;100166.72;5035975;28;20000;-72
2022/08/29 02:59:46;;;;;;;;;;;;;;;19.75;81.78;100163.09;5017356;28;20004;-73
2022/08/29 03:02:11;;;;;;;;;;;;;;;19.64;81.86;100157.59;5017580;28;19914;-72
2022/08/29 03:04:36;;;;;;;;;;;;;;;19.59;81.55;100153.25;5017882;28;20021;-72
2022/08/29 03:07:03;;;;;;;;;;;;;;;19.56;81.87;100156.09;5035277;28;19952;-72
2022/08/29 03:09:29;;;;;;;;;;;;;;;19.51;82.14;100151.72;5034905;28;19913;-72
2022/08/29 03:11:55;;;;;;;;;;;;;;;19.49;82.59;100151.34;5017311;28;19919;-72
2022/08/29 03:14:20;;;;;;;;;;;;;;;19.42;83.05;100151.44;5035119;28;19913;-72
2022/08/29 03:16:46;;;;;;;;;;;;;;;19.45;82.85;100155.47;5017857;28;20380;-72
2022/08/29 03:19:11;;;;;;;;;;;;;;;19.56;82.83;100158.91;5017567;28;19914;-72
2022/08/29 03:21:36;;;;;;;;;;;;;;;19.72;83.03;100164.75;5035313;28;19913;-72
2022/08/29 03:24:02;;;;;;;;;;;;;;;19.68;82.33;100158.38;5017154;28;19913;-72
2022/08/29 03:26:27;;;;;;;;;;;;;;;19.72;81.98;100161.94;5017720;28;20019;-72
2022/08/29 03:28:53;;;;;;;;;;;;;;;19.82;82.34;100163.81;5017397;28;19995;-73
2022/08/29 03:31:18;;;;;;;;;;;;;;;19.91;81.73;100159.63;5034516;28;20412;-72
2022/08/29 03:33:44;;;;;;;;;;;;;;;19.99;81.80;100161.94;5017557;28;19913;-72
2022/08/29 03:36:09;;;;;;;;;;;;;;;20.01;80.50;100164.31;5017520;28;19913;-73
2022/08/29 03:38:37;;;;;;;;;;;;;;;20.00;78.88;100162.72;5016903;28;20012;-72
2022/08/29 03:41:03;;;;;;;;;;;;;;;19.91;79.11;100170.94;5016812;28;19920;-73
2022/08/29 03:43:28;;;;;;;;;;;;;;;19.96;78.43;100168.41;5017117;28;20352;-72
2022/08/29 03:45:53;;;;;;;;;;;;;;;19.81;79.06;100176.31;5017130;28;19913;-72
2022/08/29 03:48:19;;;;;;;;;;;;;;;19.82;79.59;100174.31;5034544;28;19913;-73
2022/08/29 03:50:44;;;;;;;;;;;;;;;19.82;79.34;100180.75;5016674;28;20352;-71
2022/08/29 03:53:09;;;;;;;;;;;;;;;19.70;79.46;100186.16;5016971;28;19963;-73
2022/08/29 03:55:35;;;;;;;;;;;;;;;19.63;79.83;100187.88;5016951;28;19913;-73
2022/08/29 03:58:00;;;;;;;;;;;;;;;19.70;81.34;100183.34;5016750;28;19971;-73
2022/08/29 04:00:25;;;;;;;;;;;;;;;19.73;80.76;100180.47;5034242;28;19917;-73
2022/08/29 04:02:54;;;;;;;;;;;;;;;19.80;80.06;100180.34;5034624;28;19913;-72
2022/08/29 04:05:19;;;;;;;;;;;;;;;19.87;80.05;100176.66;5033848;28;19920;-73
2022/08/29 04:07:53;;;;;;;;;;;;;;;19.94;79.57;100181.38;5016474;28;19913;-73
2022/08/29 04:10:20;;;;;;;;;;;;;;;19.91;79.43;100176.56;5017265;28;19924;-73
2022/08/29 04:12:45;;;;;;;;;;;;;;;19.91;78.21;100170.94;5016654;28;19919;-73
2022/08/29 04:15:11;;;;;;;;;;;;;;;19.73;79.08;100171.19;5033839;28;20004;-72
2022/08/29 04:17:37;;;;;;;;;;;;;;;19.70;79.63;100175.66;5016360;28;20314;-72
2022/08/29 04:20:03;;;;;;;;;;;;;;;19.69;79.56;100167.63;5016626;28;19913;-72
2022/08/29 04:22:29;;;;;;;;;;;;;;;19.71;79.40;100168.00;5033958;28;19920;-71
2022/08/29 04:24:54;;;;;;;;;;;;;;;19.62;79.90;100168.53;5016245;28;19913;-71
2022/08/29 04:27:19;;;;;;;;;;;;;;;19.66;79.59;100174.94;5034800;28;20008;-73
2022/08/29 04:29:47;;;;;;;;;;;;;;;19.66;80.08;100177.75;5016109;28;19940;-72
2022/08/29 04:32:12;;;;;;;;;;;;;;;19.67;79.86;100179.34;5016477;28;20407;-73
2022/08/29 04:34:38;;;;;;;;;;;;;;;19.70;79.78;100175.66;5017001;28;19944;-71
2022/08/29 04:37:03;;;;;;;;;;;;;;;19.75;79.87;100180.03;5016230;28;19921;-71
2022/08/29 04:39:28;;;;;;;;;;;;;;;19.75;80.15;100186.47;5016151;28;19992;-73
2022/08/29 04:41:54;;;;;;;;;;;;;;;19.86;80.96;100184.28;5016050;28;19913;-73
2022/08/29 04:44:19;;;;;;;;;;;;;;;19.99;79.70;100178.88;5016711;28;19920;-73
2022/08/29 04:46:44;;;;;;;;;;;;;;;20.13;79.65;100186.31;5033238;28;19928;-73
2022/08/29 04:49:10;;;;;;;;;;;;;;;20.22;79.00;100180.13;5016430;28;19917;-72
2022/08/29 04:51:35;;;;;;;;;;;;;;;20.73;77.94;100184.50;5033913;28;19914;-73
2022/08/29 04:54:01;;;;;;;;;;;;;;;21.45;75.33;100183.88;5016378;28;19927;-73
2022/08/29 04:56:26;;;;;;;;;;;;;;;22.06;72.42;100179.69;5034195;28;19919;-72
2022/08/29 04:58:52;;;;;;;;;;;;;;;22.67;69.54;100176.13;5016591;28;19913;-73
2022/08/29 05:01:19;;;;;;;;;;;;;;;23.05;66.75;100186.84;5015818;28;19932;-72
2022/08/29 05:03:45;;;;;;;;;;;;;;;23.47;65.00;100179.94;5015681;28;19913;-72
2022/08/29 05:06:12;;;;;;;;;;;;;;;23.89;62.88;100177.06;5033913;28;19920;-73
2022/08/29 05:08:39;;;;;;;;;;;;;;;24.33;61.11;100177.22;5016457;28;19917;-72
2022/08/29 05:11:05;;;;;;;;;;;;;;;24.78;58.59;100185.47;5038032;28;19913;-73
2022/08/29 05:13:31;;;;;;;;;;;;;;;25.15;57.89;100190.69;5038053;28;19913;-73
2022/08/29 05:15:57;;;;;;;;;;;;;;;25.54;56.17;100189.19;5037662;28;19913;-72
2022/08/29 05:18:22;;;;;;;;;;;;;;;25.98;55.06;100192.75;5019527;28;19913;-72
2022/08/29 05:20:48;;;;;;;;;;;;;;;26.31;52.37;100195.09;5019328;28;19936;-72
2022/08/29 05:23:14;;;;;;;;;;;;;;;26.60;52.56;100195.50;5020014;28;19913;-73
2022/08/29 05:25:40;;;;;;;;;;;;;;;26.89;51.86;100195.03;5019415;28;20008;-73
2022/08/29 05:28:10;;;;;;;;;;;;;;;27.26;51.02;100197.13;5037556;28;20012;-73
2022/08/29 05:30:36;;;;;;;;;;;;;;;27.42;50.20;100199.63;5036777;28;19917;-72
2022/08/29 05:33:01;;;;;;;;;;;;;;;27.69;49.32;100202.44;5036900;28;20000;-73
2022/08/29 05:35:26;;;;;;;;;;;;;;;27.97;47.64;100196.66;5019124;28;19932;-73
2022/08/29 05:37:52;;;;;;;;;;;;;;;28.06;48.88;100201.53;5019242;28;19913;-73
2022/08/29 05:40:19;;;;;;;;;;;;;;;28.38;46.93;100197.09;5019850;28;19956;-72
2022/08/29 05:42:44;;;;;;;;;;;;;;;28.47;47.94;100202.78;5019765;28;19956;-72
2022/08/29 05:45:09;;;;;;;;;;;;;;;29.14;45.84;100209.16;5020067;28;20274;-72
2022/08/29 05:47:35;;;;;;;;;;;;;;;29.29;43.35;100214.91;5019113;28;20271;-73
2022/08/29 05:50:00;;;;;;;;;;;;;;;29.63;44.63;100208.53;5019615;28;19919;-73
2022/08/29 05:52:26;;;;;;;;;;;;;;;29.98;43.32;100219.28;5019086;28;19948;-73
2022/08/29 05:54:52;;;;;;;;;;;;;;;29.96;43.30;100207.53;5018958;28;19913;-73
2022/08/29 05:57:21;;;;;;;;;;;;;;;30.05;42.76;100216.03;5018975;28;19917;-72
2022/08/29 05:59:51;;;;;;;;;;;;;;;30.27;42.08;100216.41;5018822;28;20003;-72
2022/08/29 06:02:17;;;;;;;;;;;;;;;30.24;41.58;100219.47;5002623;28;19962;-74
2022/08/29 06:04:42;;;;;;;;;;;;;;;30.55;40.83;100218.88;5018850;28;20351;-73
2022/08/29 06:07:08;;;;;;;;;;;;;;;30.89;39.96;100219.34;5018838;28;19924;-72
2022/08/29 06:09:34;;;;;;;;;;;;;;;31.07;38.36;100212.53;5018759;28;20055;-73
2022/08/29 06:12:00;;;;;;;;;;;;;;;31.02;37.80;100220.56;5019249;28;20377;-72
2022/08/29 06:14:25;;;;;;;;;;;;;;;31.18;38.61;100224.13;5036436;28;19956;-73
2022/08/29 06:16:51;;;;;;;;;;;;;;;31.60;37.20;100226.44;5036653;28;19920;-73
2022/08/29 06:19:16;;;;;;;;;;;;;;;31.14;40.74;100224.34;5036341;28;20263;-73
2022/08/29 06:21:42;;;;;;;;;;;;;;;31.60;38.38;100231.41;5018522;28;19921;-73
2022/08/29 06:24:09;;;;;;;;;;;;;;;31.37;37.86;100221.75;5035449;28;20350;-73
2022/08/29 06:26:35;;;;;;;;;;;;;;;31.29;39.42;100225.06;5018377;28;20005;-73
2022/08/29 06:29:05;;;;;;;;;;;;;;;31.38;39.25;100231.97;5018810;28;19913;-73
2022/08/29 06:31:30;;;;;;;;;;;;;;;31.33;39.14;100229.81;5002260;28;19921;-73
2022/08/29 06:33:57;;;;;;;;;;;;;;;31.57;36.36;100233.19;5036028;28;19975;-73
2022/08/29 06:36:24;;;;;;;;;;;;;;;31.20;38.42;100230.94;5035968;28;19913;-75
2022/08/29 06:38:50;;;;;;;;;;;;;;;31.17;37.26;100234.84;5036275;28;19913;-73
2022/08/29 06:41:16;;;;;;;;;;;;;;;31.50;38.17;100239.41;5035510;28;19966;-74
2022/08/29 06:43:42;;;;;;;;;;;;;;;32.08;37.59;100243.88;5036510;28;19913;-74
2022/08/29 06:46:20;;;;;;;;;;;;;;;32.09;37.44;100241.81;5018166;28;20074;-74
2022/08/29 06:48:47;;;;;;;;;;;;;;;32.81;34.86;100234.94;5018081;28;19956;-73
2022/08/29 06:51:13;;;;;;;;;;;;;;;32.20;37.72;100247.63;5018958;28;19913;-73
2022/08/29 06:53:39;;;;;;;;;;;;;;;31.93;37.12;100253.97;5035528;28;20439;-73
2022/08/29 06:56:09;;;;;;;;;;;;;;;32.79;35.72;100237.56;5017797;28;19917;-73
2022/08/29 06:58:36;;;;;;;;;;;;;;;31.74;37.23;100245.66;5017251;28;20364;-74
2022/08/29 07:01:18;;;;;;;;;;;;;;;31.95;36.29;100239.84;5017120;28;19924;-73
2022/08/29 07:03:44;;;;;;;;;;;;;;;32.26;37.07;100236.94;5034072;28;20272;-72
2022/08/29 07:06:11;;;;;;;;;;;;;;;32.75;35.92;100242.75;5017552;28;20004;-73
2022/08/29 07:08:37;;;;;;;;;;;;;;;33.34;34.08;100253.50;5017751;28;19913;-73
2022/08/29 07:11:07;;;;;;;;;;;;;;;33.85;33.34;100245.75;5017524;28;19913;-73
2022/08/29 07:13:38;;;;;;;;;;;;;;;33.59;33.45;100257.53;5018232;28;20291;-74
2022/08/29 07:16:07;;;;;;;;;;;;;;;33.79;32.81;100251.53;5016973;28;19920;-73
2022/08/29 07:18:43;;;;;;;;;;;;;;;33.21;33.28;100256.09;5018154;28;19913;-73
2022/08/29 07:21:12;;;;;;;;;;;;;;;33.47;33.27;100253.06;5016924;28;19913;-75
2022/08/29 07:23:39;;;;;;;;;;;;;;;34.09;32.66;100260.50;5016760;28;19917;-73
2022/08/29 07:26:11;;;;;;;;;;;;;;;34.23;32.46;100264.41;5035225;28;20359;-74
2022/08/29 07:28:41;;;;;;;;;;;;;;;33.23;34.13;100262.91;5017590;28;20383;-74
2022/08/29 07:31:12;;;;;;;;;;;;;;;34.12;32.94;100261.53;5016994;28;19913;-73
2022/08/29 07:33:37;;;;;;;;;;;;;;;34.62;31.73;100269.38;5016461;28;19913;-73
2022/08/29 07:36:03;;;;;;;;;;;;;;;34.27;31.88;100273.59;5017104;28;19920;-73
2022/08/29 07:38:31;;;;;;;;;;;;;;;33.98;33.30;100271.25;5017006;28;19914;-73
2022/08/29 07:41:00;;;;;;;;;;;;;;;34.05;32.43;100265.75;5017405;28;19972;-73
2022/08/29 07:43:26;;;;;;;;;;;;;;;34.62;30.32;100269.38;5016844;28;19919;-73
2022/08/29 07:45:52;;;;;;;;;;;;;;;35.20;30.04;100274.47;5000795;28;20007;-72
2022/08/29 07:48:17;;;;;;;;;;;;;;;34.54;31.39;100274.13;5016956;28;19917;-74
2022/08/29 07:50:42;;;;;;;;;;;;;;;34.03;33.25;100267.56;5033085;28;20402;-74
2022/08/29 07:53:08;;;;;;;;;;;;;;;34.58;31.96;100278.31;5016657;28;19917;-74
2022/08/29 07:55:33;;;;;;;;;;;;;;;33.85;33.08;100271.75;5016847;28;19913;-74
2022/08/29 07:57:58;;;;;;;;;;;;;;;33.19;34.62;100271.03;5017123;28;19921;-74
2022/08/29 08:00:24;;;;;;;;;;;;;;;33.53;33.87;100283.47;5016472;28;20363;-74
2022/08/29 08:02:57;;;;;;;;;;;;;;;33.91;33.67;100280.41;5016333;28;19913;-74
2022/08/29 08:05:45;;;;;;;;;;;;;;;33.76;33.04;100287.19;5011670;28;20367;-74
2022/08/29 08:08:11;;;;;;;;;;;;;;;33.46;34.00;100283.22;5008402;28;19925;-73
2022/08/29 08:13:43;;;;;;;;;;;;;;;33.07;34.38;100301.09;5006129;28;19920;-73
2022/08/29 08:16:10;;;;;;;;;;;;;;;32.65;35.12;100288.28;5013268;28;19918;-73
2022/08/29 08:18:36;;;;;;;;;;;;;;;33.66;33.75;100297.41;4996945;28;20382;-74
2022/08/29 08:21:02;;;;;;;;;;;;;;;34.00;33.77;100286.75;4997279;28;20303;-74
2022/08/29 08:23:28;;;;;;;;;;;;;;;34.36;33.20;100284.91;4996926;28;19913;-74
2022/08/29 08:25:53;;;;;;;;;;;;;;;34.92;31.12;100287.69;4996415;28;19989;-73
2022/08/29 08:28:18;;;;;;;;;;;;;;;34.75;30.61;100291.94;5013287;28;19913;-74
2022/08/29 08:30:52;;;;;;;;;;;;;;;34.58;30.65;100289.09;5014122;28;19920;-73
2022/08/29 08:33:18;;;;;;;;;;;;;;;34.29;31.34;100294.06;4996650;28;19972;-74
2022/08/29 08:35:46;;;;;;;;;;;;;;;33.36;32.92;100291.28;4996609;28;19913;-74
2022/08/29 08:38:12;;;;;;;;;;;;;;;33.54;34.25;100290.03;4989016;28;20348;-74
2022/08/29 08:40:42;;;;;;;;;;;;;;;33.53;33.69;100285.59;5014235;28;19925;-74
2022/08/29 08:43:08;;;;;;;;;;;;;;;33.85;33.86;100286.16;5014509;28;20295;-76
2022/08/29 08:45:41;;;;;;;;;;;;;;;33.11;34.53;100287.25;4999970;28;19921;-76
2022/08/29 08:48:10;;;;;;;;;;;;;;;33.83;33.16;100283.81;5018362;28;19920;-75
2022/08/29 08:50:43;;;;;;;;;;;;;;;33.45;34.17;100281.63;5000639;28;19968;-73
2022/08/29 08:53:15;;;;;;;;;;;;;;;33.84;34.52;100273.84;5000796;28;19924;-73
2022/08/29 08:55:43;;;;;;;;;;;;;;;32.83;37.91;100278.44;5000597;28;19913;-74
2022/08/29 08:58:38;;;;;;;;;;;;;;;32.67;38.26;100279.94;5001082;28;19917;-73
2022/08/29 09:01:25;;;;;;;;;;;;;;;32.36;38.94;100279.97;4997233;28;19924;-75
2022/08/29 09:04:09;;;;;;;;;;;;;;;32.97;36.61;100273.81;5019200;28;19920;-74
2022/08/29 09:06:40;;;;;;;;;;;;;;;33.13;36.95;100261.56;5018067;28;19920;-74
2022/08/29 09:09:06;;;;;;;;;;;;;;;33.12;37.91;100260.00;5016871;28;19995;-74
2022/08/29 09:11:32;;;;;;;;;;;;;;;33.15;37.45;100270.50;5019276;28;19943;-74
2022/08/29 09:14:19;;;;;;;;;;;;;;;32.95;38.32;100268.56;5019254;28;20021;-74
2022/08/29 09:16:48;;;;;;;;;;;;;;;33.44;36.96;100268.50;5016513;28;19913;-73
2022/08/29 09:19:13;;;;;;;;;;;;;;;33.22;37.71;100270.00;5037483;28;19971;-74
2022/08/29 09:21:51;;;;;;;;;;;;;;;32.99;38.13;100269.13;5020153;28;19913;-74
2022/08/29 09:24:19;;;;;;;;;;;;;;;33.30;38.19;100268.19;5019595;28;19999;-74
2022/08/29 09:26:45;;;;;;;;;;;;;;;32.65;39.28;100278.84;5020382;28;20367;-74
2022/08/29 09:29:12;;;;;;;;;;;;;;;32.48;39.30;100270.88;5019506;28;19948;-74
2022/08/29 09:31:39;;;;;;;;;;;;;;;32.19;39.52;100265.44;5037593;28;19924;-74
2022/08/29 09:34:07;;;;;;;;;;;;;;;32.48;38.86;100264.34;5019671;28;19913;-74
2022/08/29 09:36:43;;;;;;;;;;;;;;;32.21;39.81;100269.34;5037373;28;19920;-74
2022/08/29 09:39:08;;;;;;;;;;;;;;;32.16;39.94;100266.44;5036935;28;20074;-73
2022/08/29 09:41:34;;;;;;;;;;;;;;;32.78;39.92;100262.69;5019124;28;20015;-75
2022/08/29 09:43:59;;;;;;;;;;;;;;;33.44;38.63;100263.53;5036902;28;19917;-74
2022/08/29 09:46:25;;;;;;;;;;;;;;;32.68;38.94;100261.34;5019582;28;19913;-73
2022/08/29 09:48:56;;;;;;;;;;;;;;;33.77;36.73;100257.06;5019015;28;20007;-74
2022/08/29 09:51:27;;;;;;;;;;;;;;;34.29;36.29;100267.31;5019087;28;19913;-74
2022/08/29 09:53:53;;;;;;;;;;;;;;;34.57;35.50;100258.59;5019011;28;19913;-74
2022/08/29 09:56:24;;;;;;;;;;;;;;;33.99;36.18;100262.06;5017709;28;20417;-74
2022/08/29 09:58:57;;;;;;;;;;;;;;;33.69;36.46;100261.75;5018835;28;19913;-74
2022/08/29 10:01:23;;;;;;;;;;;;;;;33.58;37.16;100267.50;5018964;28;20011;-74
2022/08/29 10:03:59;;;;;;;;;;;;;;;34.23;36.21;100264.41;5019583;28;19975;-74
2022/08/29 10:06:30;;;;;;;;;;;;;;;34.82;35.44;100274.84;5019017;28;20261;-73
2022/08/29 10:09:05;;;;;;;;;;;;;;;35.09;34.42;100269.50;5019033;28;20374;-73
2022/08/29 10:11:30;;;;;;;;;;;;;;;35.62;34.07;100264.53;5036770;28;19913;-74
2022/08/29 10:13:59;;;;;;;;;;;;;;;35.59;34.11;100265.59;5036358;28;20007;-75
2022/08/29 10:16:28;;;;;;;;;;;;;;;36.16;32.89;100258.84;5019241;28;19963;-75
2022/08/29 10:18:53;;;;;;;;;;;;;;;36.16;32.41;100260.97;5036621;28;19967;-75
2022/08/29 10:21:24;;;;;;;;;;;;;;;36.50;32.11;100260.69;5037029;28;19913;-74
2022/08/29 10:24:08;;;;;;;;;;;;;;;35.21;33.59;100262.38;5019002;28;19913;-74
2022/08/29 10:26:36;;;;;;;;;;;;;;;35.75;32.92;100253.13;5018400;28;19913;-74
2022/08/29 10:29:05;;;;;;;;;;;;;;;36.23;32.07;100254.59;5018361;28;19913;-75
2022/08/29 10:31:36;;;;;;;;;;;;;;;35.57;32.74;100250.88;5036167;28;19936;-73
2022/08/29 10:34:20;;;;;;;;;;;;;;;35.00;33.40;100261.16;5018847;28;19920;-75
2022/08/29 10:36:50;;;;;;;;;;;;;;;34.64;34.40;100250.22;5018327;28;20322;-74
2022/08/29 10:39:39;;;;;;;;;;;;;;;34.12;35.19;100252.88;5018695;28;19913;-74
2022/08/29 10:42:11;;;;;;;;;;;;;;;34.31;34.77;100248.16;5025171;28;20264;-75
2022/08/29 10:44:55;;;;;;;;;;;;;;;34.00;35.67;100245.53;5001987;28;19939;-75
2022/08/29 10:47:20;;;;;;;;;;;;;;;34.89;34.21;100250.38;5018839;28;20391;-74
2022/08/29 10:50:01;;;;;;;;;;;;;;;34.28;34.56;100243.41;5017948;28;19963;-74
2022/08/29 10:52:38;;;;;;;;;;;;;;;34.76;33.83;100245.16;5036438;28;20004;-75
2022/08/29 10:55:21;;;;;;;;;;;;;;;35.10;33.21;100242.16;5036046;28;19916;-75
2022/08/29 10:57:50;;;;;;;;;;;;;;;35.16;33.25;100251.63;5018211;28;19913;-75
2022/08/29 11:00:18;;;;;;;;;;;;;;;35.23;33.02;100244.47;5017593;28;20023;-75
2022/08/29 11:02:43;;;;;;;;;;;;;;;35.03;33.78;100236.94;5017778;28;19968;-75
2022/08/29 11:05:17;;;;;;;;;;;;;;;35.52;33.42;100237.22;5018379;28;20002;-75
2022/08/29 11:07:49;;;;;;;;;;;;;;;35.27;33.72;100234.22;5034905;28;19913;-75
2022/08/29 11:10:26;;;;;;;;;;;;;;;35.28;34.08;100230.00;5018035;28;19920;-75
2022/08/29 11:12:57;;;;;;;;;;;;;;;34.13;35.29;100225.59;5017614;28;19971;-76
2022/08/29 11:15:37;;;;;;;;;;;;;;;35.01;34.26;100231.72;5017544;28;19948;-76
2022/08/29 11:18:22;;;;;;;;;;;;;;;33.88;36.32;100222.44;5017211;28;19998;-74
2022/08/29 11:20:52;;;;;;;;;;;;;;;34.34;35.22;100223.97;5034776;28;19920;-75
2022/08/29 11:23:17;;;;;;;;;;;;;;;35.00;34.23;100226.47;5034809;28;20380;-75
2022/08/29 11:25:43;;;;;;;;;;;;;;;34.14;35.42;100215.59;5017435;28;19972;-75
2022/08/29 11:28:23;;;;;;;;;;;;;;;34.98;34.02;100215.41;5017271;28;19924;-75
2022/08/29 11:30:51;;;;;;;;;;;;;;;34.49;34.45;100217.16;5017895;28;19917;-75
2022/08/29 11:33:26;;;;;;;;;;;;;;;33.98;35.53;100213.53;5017308;28;19913;-75
2022/08/29 11:35:57;;;;;;;;;;;;;;;33.97;35.41;100212.72;5017813;28;19913;-76
2022/08/29 11:38:26;;;;;;;;;;;;;;;33.33;36.75;100215.25;5017183;28;19913;-74
2022/08/29 11:41:19;;;;;;;;;;;;;;;33.36;36.93;100205.56;5017029;28;19950;-75
2022/08/29 11:43:46;;;;;;;;;;;;;;;33.42;36.35;100199.03;5035113;28;19964;-74
2022/08/29 11:46:13;;;;;;;;;;;;;;;33.68;35.67;100210.34;5034746;28;19956;-75
2022/08/29 11:48:40;;;;;;;;;;;;;;;33.33;36.77;100206.59;5017200;28;20353;-75
2022/08/29 11:51:24;;;;;;;;;;;;;;;33.19;37.40;100203.97;5035046;28;20351;-75
2022/08/29 11:53:50;;;;;;;;;;;;;;;33.95;36.03;100203.03;5034953;28;19919;-76
2022/08/29 11:56:15;;;;;;;;;;;;;;;33.65;36.65;100203.53;5034936;28;19913;-76
2022/08/29 11:58:42;;;;;;;;;;;;;;;33.87;36.45;100186.19;5016845;28;19976;-74
2022/08/29 12:01:09;;;;;;;;;;;;;;;34.24;35.20;100190.13;5016316;28;19921;-75
2022/08/29 12:03:35;;;;;;;;;;;;;;;33.96;35.63;100193.06;5016727;28;19952;-74
2022/08/29 12:06:03;;;;;;;;;;;;;;;33.74;36.19;100194.63;5017260;28;19944;-75
2022/08/29 12:08:36;;;;;;;;;;;;;;;33.68;35.65;100188.06;5016804;28;20012;-76
2022/08/29 12:11:01;;;;;;;;;;;;;;;33.67;35.46;100192.25;5034144;28;19913;-75
2022/08/29 12:13:42;;;;;;;;;;;;;;;33.96;35.70;100184.41;5017254;28;20302;-75
2022/08/29 12:16:08;;;;;;;;;;;;;;;33.22;36.88;100183.50;5034683;28;20011;-74
2022/08/29 12:18:34;;;;;;;;;;;;;;;33.05;37.29;100174.03;5016101;28;20374;-74
2022/08/29 12:21:02;;;;;;;;;;;;;;;32.39;38.42;100163.78;5034183;28;20248;-74
2022/08/29 12:23:31;;;;;;;;;;;;;;;32.48;38.77;100166.44;5034315;28;19913;-76
2022/08/29 12:25:59;;;;;;;;;;;;;;;32.59;39.17;100163.63;5016723;28;19920;-76
2022/08/29 12:28:42;;;;;;;;;;;;;;;33.14;38.42;100153.63;5016364;28;19921;-75
2022/08/29 12:31:13;;;;;;;;;;;;;;;33.75;37.28;100157.88;5016339;28;20462;-76
2022/08/29 12:33:47;;;;;;;;;;;;;;;33.62;37.90;100153.44;5016211;28;19925;-76
2022/08/29 12:36:24;;;;;;;;;;;;;;;32.99;38.67;100147.31;5017399;28;19913;-75
2022/08/29 12:38:52;;;;;;;;;;;;;;;32.73;39.69;100142.47;5016620;28;19913;-75
2022/08/29 12:41:34;;;;;;;;;;;;;;;33.00;38.74;100131.59;5016317;28;19963;-76
2022/08/29 12:44:02;;;;;;;;;;;;;;;32.48;40.47;100132.66;5016286;28;19967;-74
2022/08/29 12:46:33;;;;;;;;;;;;;;;33.12;39.42;100115.88;5016008;28;19913;-75